sensor_id;sensor_type;location;lat;lon;timestamp;pressure;altitude;pressure_sealevel;temperature;humidity
39141;BME280;24875;48.436;10.298;2023-08-12T00:01:51;96638.41;;;19.94;100.00
39141;BME280;24875;48.436;10.298;2023-08-12T00:04:18;96643.84;;;19.69;100.00
39141;BME280;24875;48.436;10.298;2023-08-12T00:06:44;96643.75;;;19.76;100.00
39141;BME280;24875;48.436;10.298;2023-08-12T00:09:11;96633.56;;;19.66;100.00
39141;BME280;24875;48.436;10.298;2023-08-12T00:11:40;96633.56;;;19.66;100.00
39141;BME280;24875;48.436;10.298;2023-08-12T00:14:06;96631.56;;;19.62;100.00
39141;BME280;24875;48.436;10.298;2023-08-12T00:16:33;96630.59;;;19.39;100.00
39141;BME280;24875;48.436;10.298;2023-08-12T00:19:01;96630.47;;;19.52;100.00
39141;BME280;24875;48.436;10.298;2023-08-12T00:21:27;96622.50;;;19.27;100.00
39141;BME280;24875;48.436;10.298;2023-08-12T00:23:54;96618.19;;;19.26;100.00
39141;BME280;24875;48.436;10.298;2023-08-12T00:26:20;96613.78;;;19.14;100.00
39141;BME280;24875;48.436;10.298;2023-08-12T00:28:48;96614.72;;;19.26;100.00
39141;BME280;24875;48.436;10.298;2023-08-12T00:31:15;96614.72;;;19.26;100.00
39141;BME280;24875;48.436;10.298;2023-08-12T00:33:41;96616.94;;;19.29;100.00
39141;BME280;24875;48.436;10.298;2023-08-12T00:36:09;96610.34;;;19.49;100.00
39141;BME280;24875;48.436;10.298;2023-08-12T00:38:36;96612.31;;;19.36;100.00
39141;BME280;24875;48.436;10.298;2023-08-12T00:41:03;96605.56;;;19.33;100.00
39141;BME280;24875;48.436;10.298;2023-08-12T00:43:29;96605.31;;;19.17;100.00
39141;BME280;24875;48.436;10.298;2023-08-12T00:45:56;96613.66;;;19.27;100.00
39141;BME280;24875;48.436;10.298;2023-08-12T00:48:23;96600.06;;;19.28;100.00
39141;BME280;24875;48.436;10.298;2023-08-12T00:50:50;96599.41;;;19.33;100.00
39141;BME280;24875;48.436;10.298;2023-08-12T00:53:19;96604.47;;;19.41;100.00
39141;BME280;24875;48.436;10.298;2023-08-12T00:55:46;96601.19;;;19.21;100.00
39141;BME280;24875;48.436;10.298;2023-08-12T00:58:13;96599.78;;;19.18;100.00
39141;BME280;24875;48.436;10.298;2023-08-12T01:00:40;96599.97;;;19.17;100.00
39141;BME280;24875;48.436;10.298;2023-08-12T01:03:07;96591.75;;;19.18;100.00
39141;BME280;24875;48.436;10.298;2023-08-12T01:05:34;96591.44;;;19.08;100.00
39141;BME280;24875;48.436;10.298;2023-08-12T01:08:00;96588.38;;;19.05;100.00
39141;BME280;24875;48.436;10.298;2023-08-12T01:10:33;96582.56;;;19.32;100.00
39141;BME280;24875;48.436;10.298;2023-08-12T01:13:07;96575.50;;;19.38;100.00
39141;BME280;24875;48.436;10.298;2023-08-12T01:15:37;96581.59;;;19.27;100.00
39141;BME280;24875;48.436;10.298;2023-08-12T01:18:05;96583.16;;;18.92;100.00
39141;BME280;24875;48.436;10.298;2023-08-12T01:20:33;96575.66;;;18.83;100.00
39141;BME280;24875;48.436;10.298;2023-08-12T01:23:08;96570.53;;;18.99;100.00
39141;BME280;24875;48.436;10.298;2023-08-12T01:25:36;96567.47;;;18.78;100.00
39141;BME280;24875;48.436;10.298;2023-08-12T01:28:03;96568.66;;;18.82;100.00
39141;BME280;24875;48.436;10.298;2023-08-12T01:30:29;96563.56;;;18.80;100.00
39141;BME280;24875;48.436;10.298;2023-08-12T01:33:00;96562.63;;;19.10;100.00
39141;BME280;24875;48.436;10.298;2023-08-12T01:35:33;96560.19;;;19.09;100.00
39141;BME280;24875;48.436;10.298;2023-08-12T01:38:02;96567.84;;;19.05;100.00
39141;BME280;24875;48.436;10.298;2023-08-12T01:40:32;96559.16;;;19.10;100.00
39141;BME280;24875;48.436;10.298;2023-08-12T01:43:00;96563.34;;;18.99;100.00
39141;BME280;24875;48.436;10.298;2023-08-12T01:45:30;96565.13;;;19.12;100.00
39141;BME280;24875;48.436;10.298;2023-08-12T01:47:57;96554.97;;;18.96;100.00
39141;BME280;24875;48.436;10.298;2023-08-12T01:50:23;96563.81;;;18.96;100.00
39141;BME280;24875;48.436;10.298;2023-08-12T01:52:51;96559.19;;;18.86;100.00
39141;BME280;24875;48.436;10.298;2023-08-12T01:55:17;96558.38;;;18.85;100.00
39141;BME280;24875;48.436;10.298;2023-08-12T01:57:45;96562.50;;;18.81;100.00
39141;BME280;24875;48.436;10.298;2023-08-12T02:00:12;96560.56;;;18.70;100.00
39141;BME280;24875;48.436;10.298;2023-08-12T02:02:39;96570.97;;;18.78;100.00
39141;BME280;24875;48.436;10.298;2023-08-12T02:05:06;96559.53;;;18.71;100.00
39141;BME280;24875;48.436;10.298;2023-08-12T02:07:32;96563.50;;;18.62;100.00
39141;BME280;24875;48.436;10.298;2023-08-12T02:09:59;96557.72;;;18.65;100.00
39141;BME280;24875;48.436;10.298;2023-08-12T02:12:25;96562.19;;;18.71;100.00
39141;BME280;24875;48.436;10.298;2023-08-12T02:14:53;96557.94;;;18.88;100.00
39141;BME280;24875;48.436;10.298;2023-08-12T02:17:20;96563.97;;;18.77;100.00
39141;BME280;24875;48.436;10.298;2023-08-12T02:19:46;96557.16;;;18.81;100.00
39141;BME280;24875;48.436;10.298;2023-08-12T02:24:44;96550.00;;;18.99;100.00
39141;BME280;24875;48.436;10.298;2023-08-12T02:27:10;96558.41;;;18.79;100.00
39141;BME280;24875;48.436;10.298;2023-08-12T02:29:37;96552.94;;;18.74;100.00
39141;BME280;24875;48.436;10.298;2023-08-12T02:32:04;96556.41;;;18.74;100.00
39141;BME280;24875;48.436;10.298;2023-08-12T02:34:30;96543.34;;;18.66;100.00
39141;BME280;24875;48.436;10.298;2023-08-12T02:36:57;96548.97;;;18.58;100.00
39141;BME280;24875;48.436;10.298;2023-08-12T02:39:23;96541.84;;;18.52;100.00
39141;BME280;24875;48.436;10.298;2023-08-12T02:41:51;96543.72;;;18.70;100.00
39141;BME280;24875;48.436;10.298;2023-08-12T02:44:19;96540.34;;;18.56;100.00
39141;BME280;24875;48.436;10.298;2023-08-12T02:46:45;96532.03;;;18.46;100.00
39141;BME280;24875;48.436;10.298;2023-08-12T02:49:12;96536.50;;;18.52;100.00
39141;BME280;24875;48.436;10.298;2023-08-12T02:51:38;96540.47;;;18.43;100.00
39141;BME280;24875;48.436;10.298;2023-08-12T02:54:05;96541.44;;;18.25;100.00
39141;BME280;24875;48.436;10.298;2023-08-12T02:56:31;96540.03;;;18.16;100.00
39141;BME280;24875;48.436;10.298;2023-08-12T02:58:59;96540.47;;;18.13;100.00
39141;BME280;24875;48.436;10.298;2023-08-12T03:01:26;96545.25;;;18.04;100.00
39141;BME280;24875;48.436;10.298;2023-08-12T03:03:53;96537.28;;;17.98;100.00
39141;BME280;24875;48.436;10.298;2023-08-12T03:06:20;96536.16;;;18.18;100.00
39141;BME280;24875;48.436;10.298;2023-08-12T03:08:46;96531.22;;;18.15;100.00
39141;BME280;24875;48.436;10.298;2023-08-12T03:11:13;96537.50;;;18.27;100.00
39141;BME280;24875;48.436;10.298;2023-08-12T03:13:40;96533.06;;;18.15;100.00
39141;BME280;24875;48.436;10.298;2023-08-12T03:16:12;96533.78;;;18.34;100.00
39141;BME280;24875;48.436;10.298;2023-08-12T03:18:39;96538.63;;;18.13;100.00
39141;BME280;24875;48.436;10.298;2023-08-12T03:21:06;96525.06;;;18.15;100.00
39141;BME280;24875;48.436;10.298;2023-08-12T03:23:33;96525.31;;;18.07;100.00
39141;BME280;24875;48.436;10.298;2023-08-12T03:25:59;96525.78;;;18.04;100.00
39141;BME280;24875;48.436;10.298;2023-08-12T03:28:26;96522.66;;;18.07;100.00
39141;BME280;24875;48.436;10.298;2023-08-12T03:30:53;96524.09;;;18.09;100.00
39141;BME280;24875;48.436;10.298;2023-08-12T03:33:21;96529.38;;;18.16;100.00
39141;BME280;24875;48.436;10.298;2023-08-12T03:35:48;96540.56;;;18.00;100.00
39141;BME280;24875;48.436;10.298;2023-08-12T03:38:15;96536.53;;;17.91;100.00
39141;BME280;24875;48.436;10.298;2023-08-12T03:40:42;96530.75;;;17.94;100.00
39141;BME280;24875;48.436;10.298;2023-08-12T03:43:08;96528.84;;;18.01;100.00
39141;BME280;24875;48.436;10.298;2023-08-12T03:45:39;96523.09;;;18.04;100.00
39141;BME280;24875;48.436;10.298;2023-08-12T03:48:06;96527.09;;;17.88;100.00
39141;BME280;24875;48.436;10.298;2023-08-12T03:50:34;96527.38;;;18.05;100.00
39141;BME280;24875;48.436;10.298;2023-08-12T03:53:01;96529.19;;;17.80;100.00
39141;BME280;24875;48.436;10.298;2023-08-12T03:55:30;96525.72;;;18.10;100.00
39141;BME280;24875;48.436;10.298;2023-08-12T03:57:57;96522.66;;;17.76;100.00
39141;BME280;24875;48.436;10.298;2023-08-12T04:00:23;96532.84;;;17.85;100.00
39141;BME280;24875;48.436;10.298;2023-08-12T04:02:50;96533.28;;;17.82;100.00
39141;BME280;24875;48.436;10.298;2023-08-12T04:05:16;96525.94;;;17.71;100.00
39141;BME280;24875;48.436;10.298;2023-08-12T04:07:44;96536.31;;;17.92;100.00
39141;BME280;24875;48.436;10.298;2023-08-12T04:10:11;96538.22;;;17.79;100.00
39141;BME280;24875;48.436;10.298;2023-08-12T04:12:37;96524.31;;;17.77;100.00
39141;BME280;24875;48.436;10.298;2023-08-12T04:15:05;96531.19;;;17.84;100.00
39141;BME280;24875;48.436;10.298;2023-08-12T04:17:31;96530.84;;;17.81;100.00
39141;BME280;24875;48.436;10.298;2023-08-12T04:19:58;96531.69;;;17.75;100.00
39141;BME280;24875;48.436;10.298;2023-08-12T04:22:24;96527.72;;;17.84;100.00
39141;BME280;24875;48.436;10.298;2023-08-12T04:24:53;96527.25;;;18.00;100.00
39141;BME280;24875;48.436;10.298;2023-08-12T04:27:19;96533.84;;;17.91;100.00
39141;BME280;24875;48.436;10.298;2023-08-12T04:29:46;96536.81;;;18.07;100.00
39141;BME280;24875;48.436;10.298;2023-08-12T04:32:13;96531.50;;;18.01;100.00
39141;BME280;24875;48.436;10.298;2023-08-12T04:34:39;96527.44;;;17.98;100.00
39141;BME280;24875;48.436;10.298;2023-08-12T04:37:06;96519.59;;;18.03;100.00
39141;BME280;24875;48.436;10.298;2023-08-12T04:39:32;96513.84;;;18.06;100.00
39141;BME280;24875;48.436;10.298;2023-08-12T04:42:00;96516.44;;;18.19;100.00
39141;BME280;24875;48.436;10.298;2023-08-12T04:44:27;96519.19;;;18.06;100.00
39141;BME280;24875;48.436;10.298;2023-08-12T04:46:53;96513.59;;;18.14;100.00
39141;BME280;24875;48.436;10.298;2023-08-12T04:49:20;96518.69;;;18.16;100.00
39141;BME280;24875;48.436;10.298;2023-08-12T04:51:51;96515.84;;;18.41;100.00
39141;BME280;24875;48.436;10.298;2023-08-12T04:54:17;96515.56;;;18.25;100.00
39141;BME280;24875;48.436;10.298;2023-08-12T04:56:44;96516.88;;;18.40;100.00
39141;BME280;24875;48.436;10.298;2023-08-12T04:59:12;96512.69;;;18.51;100.00
39141;BME280;24875;48.436;10.298;2023-08-12T05:01:38;96518.69;;;18.46;100.00
39141;BME280;24875;48.436;10.298;2023-08-12T05:04:05;96521.66;;;18.56;100.00
39141;BME280;24875;48.436;10.298;2023-08-12T05:06:31;96519.63;;;18.52;100.00
39141;BME280;24875;48.436;10.298;2023-08-12T05:08:58;96516.34;;;18.56;100.00
39141;BME280;24875;48.436;10.298;2023-08-12T05:11:24;96521.78;;;18.68;100.00
39141;BME280;24875;48.436;10.298;2023-08-12T05:13:51;96525.34;;;18.80;100.00
39141;BME280;24875;48.436;10.298;2023-08-12T05:16:19;96515.25;;;19.06;100.00
39141;BME280;24875;48.436;10.298;2023-08-12T05:18:45;96522.00;;;19.08;100.00
39141;BME280;24875;48.436;10.298;2023-08-12T05:21:12;96523.72;;;19.21;100.00
39141;BME280;24875;48.436;10.298;2023-08-12T05:23:38;96520.66;;;19.35;100.00
39141;BME280;24875;48.436;10.298;2023-08-12T05:26:05;96522.34;;;19.48;100.00
39141;BME280;24875;48.436;10.298;2023-08-12T05:28:31;96514.97;;;19.61;100.00
39141;BME280;24875;48.436;10.298;2023-08-12T05:30:58;96515.88;;;19.84;100.00
39141;BME280;24875;48.436;10.298;2023-08-12T05:33:26;96513.66;;;20.11;100.00
39141;BME280;24875;48.436;10.298;2023-08-12T05:35:52;96510.97;;;20.11;100.00
39141;BME280;24875;48.436;10.298;2023-08-12T05:38:19;96508.47;;;20.27;100.00
39141;BME280;24875;48.436;10.298;2023-08-12T05:40:45;96503.94;;;20.39;100.00
39141;BME280;24875;48.436;10.298;2023-08-12T05:43:12;96497.66;;;20.45;100.00
39141;BME280;24875;48.436;10.298;2023-08-12T05:45:39;96501.84;;;20.41;100.00
39141;BME280;24875;48.436;10.298;2023-08-12T05:48:05;96505.94;;;20.55;100.00
39141;BME280;24875;48.436;10.298;2023-08-12T05:50:33;96508.75;;;20.60;100.00
39141;BME280;24875;48.436;10.298;2023-08-12T05:53:00;96513.84;;;20.38;100.00
39141;BME280;24875;48.436;10.298;2023-08-12T05:55:26;96527.94;;;20.57;100.00
39141;BME280;24875;48.436;10.298;2023-08-12T05:57:53;96532.50;;;20.68;100.00
39141;BME280;24875;48.436;10.298;2023-08-12T06:00:19;96522.06;;;20.78;100.00
39141;BME280;24875;48.436;10.298;2023-08-12T06:02:46;96520.53;;;20.82;100.00
39141;BME280;24875;48.436;10.298;2023-08-12T06:05:12;96524.84;;;20.83;100.00
39141;BME280;24875;48.436;10.298;2023-08-12T06:07:40;96533.34;;;20.80;100.00
39141;BME280;24875;48.436;10.298;2023-08-12T06:10:07;96528.81;;;20.80;100.00
39141;BME280;24875;48.436;10.298;2023-08-12T06:12:34;96528.56;;;20.93;100.00
39141;BME280;24875;48.436;10.298;2023-08-12T06:15:01;96518.22;;;21.08;100.00
39141;BME280;24875;48.436;10.298;2023-08-12T06:17:27;96513.66;;;21.08;100.00
39141;BME280;24875;48.436;10.298;2023-08-12T06:19:54;96506.16;;;21.10;100.00
39141;BME280;24875;48.436;10.298;2023-08-12T06:22:20;96513.88;;;21.18;100.00
39141;BME280;24875;48.436;10.298;2023-08-12T06:24:48;96511.03;;;21.36;100.00
39141;BME280;24875;48.436;10.298;2023-08-12T06:27:14;96516.28;;;21.31;100.00
39141;BME280;24875;48.436;10.298;2023-08-12T06:29:41;96527.94;;;21.25;100.00
39141;BME280;24875;48.436;10.298;2023-08-12T06:32:07;96525.50;;;21.35;100.00
39141;BME280;24875;48.436;10.298;2023-08-12T06:34:38;96525.94;;;21.43;100.00
39141;BME280;24875;48.436;10.298;2023-08-12T06:37:04;96530.59;;;21.48;100.00
39141;BME280;24875;48.436;10.298;2023-08-12T06:39:31;96526.50;;;21.45;100.00
39141;BME280;24875;48.436;10.298;2023-08-12T06:41:58;96519.19;;;21.80;100.00
39141;BME280;24875;48.436;10.298;2023-08-12T06:44:25;96526.81;;;21.72;100.00
39141;BME280;24875;48.436;10.298;2023-08-12T06:46:51;96526.75;;;21.55;100.00
39141;BME280;24875;48.436;10.298;2023-08-12T06:49:18;96518.47;;;21.85;100.00
39141;BME280;24875;48.436;10.298;2023-08-12T06:51:44;96519.03;;;21.87;100.00
39141;BME280;24875;48.436;10.298;2023-08-12T06:54:11;96517.84;;;21.66;100.00
39141;BME280;24875;48.436;10.298;2023-08-12T06:56:37;96518.72;;;21.55;100.00
39141;BME280;24875;48.436;10.298;2023-08-12T06:59:05;96508.94;;;21.77;100.00
39141;BME280;24875;48.436;10.298;2023-08-12T07:01:32;96516.22;;;21.65;100.00
39141;BME280;24875;48.436;10.298;2023-08-12T07:03:58;96510.28;;;21.63;100.00
39141;BME280;24875;48.436;10.298;2023-08-12T07:06:25;96508.75;;;21.67;100.00
39141;BME280;24875;48.436;10.298;2023-08-12T07:08:51;96513.38;;;21.83;100.00
39141;BME280;24875;48.436;10.298;2023-08-12T07:11:18;96509.78;;;21.94;100.00
39141;BME280;24875;48.436;10.298;2023-08-12T07:13:45;96511.13;;;22.08;100.00
39141;BME280;24875;48.436;10.298;2023-08-12T07:16:13;96514.56;;;22.31;100.00
39141;BME280;24875;48.436;10.298;2023-08-12T07:18:40;96516.69;;;22.18;100.00
39141;BME280;24875;48.436;10.298;2023-08-12T07:21:06;96517.97;;;22.43;100.00
39141;BME280;24875;48.436;10.298;2023-08-12T07:23:33;96520.41;;;22.45;100.00
39141;BME280;24875;48.436;10.298;2023-08-12T07:25:59;96520.06;;;22.41;100.00
39141;BME280;24875;48.436;10.298;2023-08-12T07:28:26;96508.19;;;22.70;100.00
39141;BME280;24875;48.436;10.298;2023-08-12T07:30:52;96516.00;;;22.88;100.00
39141;BME280;24875;48.436;10.298;2023-08-12T07:33:20;96512.63;;;22.97;100.00
39141;BME280;24875;48.436;10.298;2023-08-12T07:35:47;96519.28;;;22.90;100.00
39141;BME280;24875;48.436;10.298;2023-08-12T07:38:14;96516.44;;;22.80;100.00
39141;BME280;24875;48.436;10.298;2023-08-12T07:40:40;96513.31;;;22.88;100.00
39141;BME280;24875;48.436;10.298;2023-08-12T07:43:07;96516.72;;;22.83;100.00
39141;BME280;24875;48.436;10.298;2023-08-12T07:45:33;96515.13;;;22.99;100.00
39141;BME280;24875;48.436;10.298;2023-08-12T07:48:00;96526.31;;;22.96;100.00
39141;BME280;24875;48.436;10.298;2023-08-12T07:50:28;96513.09;;;23.27;100.00
39141;BME280;24875;48.436;10.298;2023-08-12T07:52:54;96513.84;;;23.23;100.00
39141;BME280;24875;48.436;10.298;2023-08-12T07:55:21;96519.50;;;23.42;100.00
39141;BME280;24875;48.436;10.298;2023-08-12T07:57:47;96525.03;;;23.57;100.00
39141;BME280;24875;48.436;10.298;2023-08-12T08:00:14;96519.41;;;23.75;100.00
39141;BME280;24875;48.436;10.298;2023-08-12T08:02:41;96521.00;;;23.76;100.00
39141;BME280;24875;48.436;10.298;2023-08-12T08:05:07;96509.97;;;23.78;100.00
39141;BME280;24875;48.436;10.298;2023-08-12T08:07:35;96508.66;;;24.01;100.00
39141;BME280;24875;48.436;10.298;2023-08-12T08:10:02;96512.72;;;24.04;100.00
39141;BME280;24875;48.436;10.298;2023-08-12T08:12:29;96511.41;;;24.33;100.00
39141;BME280;24875;48.436;10.298;2023-08-12T08:14:55;96517.19;;;24.46;100.00
39141;BME280;24875;48.436;10.298;2023-08-12T08:17:22;96512.78;;;24.66;100.00
39141;BME280;24875;48.436;10.298;2023-08-12T08:19:48;96518.88;;;24.88;100.00
39141;BME280;24875;48.436;10.298;2023-08-12T08:22:15;96515.50;;;25.49;100.00
39141;BME280;24875;48.436;10.298;2023-08-12T08:24:42;96510.59;;;25.36;100.00
39141;BME280;24875;48.436;10.298;2023-08-12T08:27:09;96513.03;;;25.01;100.00
39141;BME280;24875;48.436;10.298;2023-08-12T08:29:35;96510.41;;;25.06;100.00
39141;BME280;24875;48.436;10.298;2023-08-12T08:32:02;96501.63;;;25.25;100.00
39141;BME280;24875;48.436;10.298;2023-08-12T08:34:29;96501.44;;;25.37;100.00
39141;BME280;24875;48.436;10.298;2023-08-12T08:36:55;96500.94;;;25.50;100.00
39141;BME280;24875;48.436;10.298;2023-08-12T08:39:22;96494.88;;;25.74;100.00
39141;BME280;24875;48.436;10.298;2023-08-12T08:41:53;96493.59;;;26.06;100.00
39141;BME280;24875;48.436;10.298;2023-08-12T08:44:21;96489.88;;;26.22;100.00
39141;BME280;24875;48.436;10.298;2023-08-12T08:46:49;96482.06;;;26.36;100.00
39141;BME280;24875;48.436;10.298;2023-08-12T08:49:18;96483.97;;;26.35;100.00
39141;BME280;24875;48.436;10.298;2023-08-12T08:51:46;96499.63;;;26.78;100.00
39141;BME280;24875;48.436;10.298;2023-08-12T08:54:13;96487.47;;;26.41;100.00
39141;BME280;24875;48.436;10.298;2023-08-12T08:56:40;96500.72;;;26.42;100.00
39141;BME280;24875;48.436;10.298;2023-08-12T08:59:08;96496.38;;;26.36;100.00
39141;BME280;24875;48.436;10.298;2023-08-12T09:01:35;96493.44;;;26.77;100.00
39141;BME280;24875;48.436;10.298;2023-08-12T09:04:03;96494.75;;;27.24;97.68
39141;BME280;24875;48.436;10.298;2023-08-12T09:06:30;96495.22;;;27.41;93.12
39141;BME280;24875;48.436;10.298;2023-08-12T09:08:59;96497.88;;;27.66;95.92
39141;BME280;24875;48.436;10.298;2023-08-12T09:11:27;96497.97;;;27.31;94.47
39141;BME280;24875;48.436;10.298;2023-08-12T09:13:54;96504.69;;;27.44;97.94
39141;BME280;24875;48.436;10.298;2023-08-12T09:16:21;96498.44;;;27.63;92.26
39141;BME280;24875;48.436;10.298;2023-08-12T09:18:55;96503.09;;;28.16;95.69
39141;BME280;24875;48.436;10.298;2023-08-12T09:21:22;96503.03;;;28.21;96.07
39141;BME280;24875;48.436;10.298;2023-08-12T09:23:49;96498.78;;;28.00;89.22
39141;BME280;24875;48.436;10.298;2023-08-12T09:26:17;96503.09;;;28.92;89.15
39141;BME280;24875;48.436;10.298;2023-08-12T09:28:44;96508.94;;;29.04;89.24
39141;BME280;24875;48.436;10.298;2023-08-12T09:31:23;96510.47;;;29.43;84.93
39141;BME280;24875;48.436;10.298;2023-08-12T09:33:50;96514.44;;;28.94;86.87
39141;BME280;24875;48.436;10.298;2023-08-12T09:36:17;96515.72;;;28.73;83.19
39141;BME280;24875;48.436;10.298;2023-08-12T09:38:43;96514.66;;;28.69;84.85
39141;BME280;24875;48.436;10.298;2023-08-12T09:41:10;96514.19;;;28.91;86.36
39141;BME280;24875;48.436;10.298;2023-08-12T09:43:40;96511.16;;;28.97;82.61
39141;BME280;24875;48.436;10.298;2023-08-12T09:46:07;96505.94;;;28.77;78.31
39141;BME280;24875;48.436;10.298;2023-08-12T09:48:37;96507.59;;;29.01;79.89
39141;BME280;24875;48.436;10.298;2023-08-12T09:51:04;96502.00;;;28.88;77.39
39141;BME280;24875;48.436;10.298;2023-08-12T09:53:32;96496.59;;;28.88;74.21
39141;BME280;24875;48.436;10.298;2023-08-12T09:56:03;96505.75;;;29.25;75.01
39141;BME280;24875;48.436;10.298;2023-08-12T09:58:32;96494.56;;;29.03;75.43
39141;BME280;24875;48.436;10.298;2023-08-12T10:01:01;96488.59;;;29.30;76.31
39141;BME280;24875;48.436;10.298;2023-08-12T10:03:28;96486.81;;;29.67;77.62
39141;BME280;24875;48.436;10.298;2023-08-12T10:05:57;96486.78;;;30.32;82.19
39141;BME280;24875;48.436;10.298;2023-08-12T10:08:24;96482.75;;;30.11;71.95
39141;BME280;24875;48.436;10.298;2023-08-12T10:10:51;96482.84;;;30.24;70.90
39141;BME280;24875;48.436;10.298;2023-08-12T10:13:18;96488.72;;;29.66;77.84
39141;BME280;24875;48.436;10.298;2023-08-12T10:15:45;96490.59;;;29.48;77.72
39141;BME280;24875;48.436;10.298;2023-08-12T10:18:13;96486.44;;;29.55;79.56
39141;BME280;24875;48.436;10.298;2023-08-12T10:20:42;96503.03;;;29.54;74.92
39141;BME280;24875;48.436;10.298;2023-08-12T10:23:16;96504.84;;;29.86;74.88
39141;BME280;24875;48.436;10.298;2023-08-12T10:25:44;96499.41;;;29.58;75.14
39141;BME280;24875;48.436;10.298;2023-08-12T10:28:11;96497.88;;;29.52;74.00
39141;BME280;24875;48.436;10.298;2023-08-12T10:30:39;96493.13;;;29.62;79.42
39141;BME280;24875;48.436;10.298;2023-08-12T10:33:06;96496.88;;;29.15;74.33
39141;BME280;24875;48.436;10.298;2023-08-12T10:35:46;96496.41;;;29.08;74.55
39141;BME280;24875;48.436;10.298;2023-08-12T10:38:17;96497.31;;;29.27;76.71
39141;BME280;24875;48.436;10.298;2023-08-12T10:40:44;96489.91;;;29.09;75.37
39141;BME280;24875;48.436;10.298;2023-08-12T10:43:11;96480.06;;;29.13;79.85
39141;BME280;24875;48.436;10.298;2023-08-12T10:45:42;96471.41;;;29.39;84.38
39141;BME280;24875;48.436;10.298;2023-08-12T10:48:16;96473.66;;;29.56;75.78
39141;BME280;24875;48.436;10.298;2023-08-12T10:50:44;96471.22;;;29.77;76.80
39141;BME280;24875;48.436;10.298;2023-08-12T10:53:25;96462.69;;;30.07;73.92
39141;BME280;24875;48.436;10.298;2023-08-12T10:55:56;96456.94;;;29.67;74.50
39141;BME280;24875;48.436;10.298;2023-08-12T10:58:33;96441.91;;;29.74;74.57
39141;BME280;24875;48.436;10.298;2023-08-12T11:01:00;96442.66;;;29.80;71.95
39141;BME280;24875;48.436;10.298;2023-08-12T11:03:31;96435.34;;;30.17;72.44
39141;BME280;24875;48.436;10.298;2023-08-12T11:05:59;96441.44;;;30.46;70.52
39141;BME280;24875;48.436;10.298;2023-08-12T11:08:27;96435.25;;;30.59;74.02
39141;BME280;24875;48.436;10.298;2023-08-12T11:10:55;96434.78;;;30.70;74.10
39141;BME280;24875;48.436;10.298;2023-08-12T11:13:23;96423.78;;;30.62;71.01
39141;BME280;24875;48.436;10.298;2023-08-12T11:16:05;96417.06;;;31.45;69.35
39141;BME280;24875;48.436;10.298;2023-08-12T11:18:33;96425.25;;;30.86;71.02
39141;BME280;24875;48.436;10.298;2023-08-12T11:21:00;96424.50;;;30.67;68.37
39141;BME280;24875;48.436;10.298;2023-08-12T11:23:28;96413.94;;;30.79;68.36
39141;BME280;24875;48.436;10.298;2023-08-12T11:25:55;96415.31;;;30.95;70.77
39141;BME280;24875;48.436;10.298;2023-08-12T11:28:23;96411.88;;;31.48;69.74
39141;BME280;24875;48.436;10.298;2023-08-12T11:30:50;96396.59;;;31.34;66.60
39141;BME280;24875;48.436;10.298;2023-08-12T11:33:17;96391.75;;;31.71;68.78
39141;BME280;24875;48.436;10.298;2023-08-12T11:35:45;96387.31;;;31.75;67.87
39141;BME280;24875;48.436;10.298;2023-08-12T11:38:12;96402.44;;;31.41;68.49
39141;BME280;24875;48.436;10.298;2023-08-12T11:40:40;96405.88;;;31.46;68.43
39141;BME280;24875;48.436;10.298;2023-08-12T11:43:06;96417.66;;;31.28;67.02
39141;BME280;24875;48.436;10.298;2023-08-12T11:45:33;96422.69;;;30.94;66.95
39141;BME280;24875;48.436;10.298;2023-08-12T11:47:59;96424.03;;;30.79;65.60
39141;BME280;24875;48.436;10.298;2023-08-12T11:50:26;96419.09;;;30.81;65.27
39141;BME280;24875;48.436;10.298;2023-08-12T11:52:55;96415.41;;;30.58;68.53
39141;BME280;24875;48.436;10.298;2023-08-12T11:55:22;96432.78;;;30.44;66.37
39141;BME280;24875;48.436;10.298;2023-08-12T11:57:51;96426.50;;;30.62;67.01
39141;BME280;24875;48.436;10.298;2023-08-12T12:00:18;96420.59;;;30.41;69.94
39141;BME280;24875;48.436;10.298;2023-08-12T12:02:47;96424.38;;;30.40;71.79
39141;BME280;24875;48.436;10.298;2023-08-12T12:05:16;96418.59;;;30.10;72.23
39141;BME280;24875;48.436;10.298;2023-08-12T12:07:43;96421.22;;;30.15;71.87
39141;BME280;24875;48.436;10.298;2023-08-12T12:10:12;96417.94;;;30.18;74.16
39141;BME280;24875;48.436;10.298;2023-08-12T12:12:39;96420.94;;;30.35;73.58
39141;BME280;24875;48.436;10.298;2023-08-12T12:15:08;96415.16;;;31.05;73.67
39141;BME280;24875;48.436;10.298;2023-08-12T12:17:38;96399.63;;;31.72;70.41
39141;BME280;24875;48.436;10.298;2023-08-12T12:20:07;96395.38;;;31.80;70.52
39141;BME280;24875;48.436;10.298;2023-08-12T12:22:35;96386.59;;;31.69;71.82
39141;BME280;24875;48.436;10.298;2023-08-12T12:25:06;96389.22;;;32.45;72.76
39141;BME280;24875;48.436;10.298;2023-08-12T12:27:33;96390.06;;;31.97;73.19
39141;BME280;24875;48.436;10.298;2023-08-12T12:29:59;96396.31;;;31.97;73.64
39141;BME280;24875;48.436;10.298;2023-08-12T12:32:27;96395.13;;;32.38;68.96
39141;BME280;24875;48.436;10.298;2023-08-12T12:34:54;96394.22;;;31.94;68.33
39141;BME280;24875;48.436;10.298;2023-08-12T12:37:21;96401.63;;;31.67;69.03
39141;BME280;24875;48.436;10.298;2023-08-12T12:39:47;96402.13;;;31.69;70.70
39141;BME280;24875;48.436;10.298;2023-08-12T12:42:14;96409.38;;;31.87;68.42
39141;BME280;24875;48.436;10.298;2023-08-12T12:44:40;96412.47;;;31.94;67.34
39141;BME280;24875;48.436;10.298;2023-08-12T12:47:07;96426.22;;;32.15;67.08